Weather at Bromelton Airport [CLOSED]

Public forecast

Using degrees Celsius for public forecast. Weather courtesy of forecast.io.

Closest aviation weather report (METAR) to Bromelton Airport

Closest report is RAAF Base Amberley, 22.1 nm (40.9 km) NNW. Retrieved 2020/10/30 15:30 UTC (0 seconds ago):

YAMB 301530Z AUTO /////KT 9999 // NCD 18/15 Q1008

Closest aviation forecast (TAF) to Bromelton Airport

Forecast is more than 12 hours old.

Closest forecast is RAAF Base Amberley, 22.1 nm (40.9 km) NNW. Retrieved 2020-10-30 00:00 UTC (15 hours ago):

TAF YAMB 292311Z 3000/3100 03007KT 9999 FEW040 FM300500 06015KT CAVOK FM300900 06008KT CAVOK FM301500 VRB03KT 9999 MIFG BKN010 FM302200 34008KT 9999 NSW SCT030 PROB30 3016/3021 0500 FG BKN001